This is the latest recevied weather packets stored in our database for station/object AG1T-20. If no packets are shown the sender has not sent any weather packets the latest 10 day(s).
| Time | Temp. | Humidity | Pressure | Rain* | Wind** | Luminosity | Snow |
|---|---|---|---|---|---|---|---|
| 1787748004 | 12.78° C | 78% | 1024.4 hPa | 0 mm | - | 3 W/m² | - |
| 1787747405 | 13.33° C | 76% | 1024.4 hPa | 0 mm | - | 0 W/m² | - |
| 1787746805 | 13.33° C | 77% | 1024.4 hPa | 0 mm | - | 0 W/m² | - |
| 1787746205 | 13.33° C | 75% | 1024.4 hPa | 0 mm | - | 0 W/m² | - |
| 1787745604 | 13.33° C | 73% | 1024.4 hPa | 0 mm | - | 0 W/m² | - |
| 1787745004 | 13.33° C | 72% | 1024.4 hPa | 0 mm | - | 0 W/m² | - |
| 1787744405 | 13.89° C | 72% | 1024.4 hPa | 0 mm | - | 0 W/m² | - |
| 1787743805 | 13.89° C | 70% | 1024.4 hPa | 0 mm | - | 0 W/m² | - |
| 1787743204 | 13.89° C | 70% | 1024.4 hPa | 0 mm | - | 0 W/m² | - |
| 1787742604 | 13.89° C | 71% | 1024.4 hPa | 0 mm | - | 0 W/m² | - |
| 1787742005 | 14.44° C | 70% | 1024.4 hPa | 0 mm | - | 0 W/m² | - |
| 1787741405 | 13.89° C | 73% | 1024.5 hPa | 0 mm | - | 0 W/m² | - |
| 1787740804 | 14.44° C | 71% | 1024.5 hPa | 0 mm | - | 0 W/m² | - |
| 1787740204 | 14.44° C | 70% | 1024.5 hPa | 0 mm | - | 0 W/m² | - |
| 1787739604 | 14.44° C | 69% | 1024.5 hPa | 0 mm | - | 0 W/m² | - |
| 1787739004 | 14.44° C | 72% | 1024.5 hPa | 0 mm | - | 0 W/m² | - |
| 1787738404 | 13.89° C | 73% | 1024.5 hPa | 0 mm | - | 0 W/m² | - |
| 1787737805 | 14.44° C | 70% | 1024.1 hPa | 0 mm | - | 0 W/m² | - |
| 1787737205 | 14.44° C | 69% | 1024.1 hPa | 0 mm | - | 0 W/m² | - |
| 1787736604 | 15° C | 65% | 1024.1 hPa | 0 mm | - | 0 W/m² | - |
| 1787736004 | 15° C | 68% | 1024.1 hPa | 0 mm | - | 0 W/m² | - |
| 1787735405 | 15° C | 67% | 1024.1 hPa | 0 mm | - | 0 W/m² | - |
| 1787734805 | 15.56° C | 66% | 1024.1 hPa | 0 mm | - | 0 W/m² | - |
| 1787734204 | 15° C | 65% | 1024.1 hPa | 0 mm | - | 0 W/m² | - |
| 1787733604 | 15.56° C | 63% | 1024.1 hPa | 0 mm | - | 0 W/m² | - |
* Rain latest hour (hover to see other rain measurements)
** Current wind speed in m/s (hover to see current wind gust speed)